sensor_id;sensor_type;location;lat;lon;timestamp;temperature;humidity
51853;DHT22;37894;53.172;6.598;2022-07-22T00:01:02;16.30;99.90
51853;DHT22;37894;53.172;6.598;2022-07-22T00:03:28;16.30;99.90
51853;DHT22;37894;53.172;6.598;2022-07-22T00:05:54;16.30;99.90
51853;DHT22;37894;53.172;6.598;2022-07-22T00:08:20;16.30;99.90
51853;DHT22;37894;53.172;6.598;2022-07-22T00:10:45;16.30;99.90
51853;DHT22;37894;53.172;6.598;2022-07-22T00:13:11;16.30;99.90
51853;DHT22;37894;53.172;6.598;2022-07-22T00:15:37;16.30;99.90
51853;DHT22;37894;53.172;6.598;2022-07-22T00:18:03;16.30;99.90
51853;DHT22;37894;53.172;6.598;2022-07-22T00:20:28;16.30;99.90
51853;DHT22;37894;53.172;6.598;2022-07-22T00:22:54;16.70;99.90
51853;DHT22;37894;53.172;6.598;2022-07-22T00:25:20;16.30;99.90
51853;DHT22;37894;53.172;6.598;2022-07-22T00:27:45;16.30;99.90
51853;DHT22;37894;53.172;6.598;2022-07-22T00:30:11;16.30;99.90
51853;DHT22;37894;53.172;6.598;2022-07-22T00:32:37;16.30;99.90
51853;DHT22;37894;53.172;6.598;2022-07-22T00:35:03;16.30;99.90
51853;DHT22;37894;53.172;6.598;2022-07-22T00:37:29;16.30;99.90
51853;DHT22;37894;53.172;6.598;2022-07-22T00:39:55;16.30;99.90
51853;DHT22;37894;53.172;6.598;2022-07-22T00:42:20;16.30;99.90
51853;DHT22;37894;53.172;6.598;2022-07-22T00:44:46;16.30;99.90
51853;DHT22;37894;53.172;6.598;2022-07-22T00:47:12;16.30;99.90
51853;DHT22;37894;53.172;6.598;2022-07-22T00:49:38;16.30;99.90
51853;DHT22;37894;53.172;6.598;2022-07-22T00:52:04;16.20;99.90
51853;DHT22;37894;53.172;6.598;2022-07-22T00:54:31;16.20;99.90
51853;DHT22;37894;53.172;6.598;2022-07-22T00:56:58;16.20;99.90
51853;DHT22;37894;53.172;6.598;2022-07-22T00:59:24;16.20;99.90
51853;DHT22;37894;53.172;6.598;2022-07-22T01:01:50;16.20;99.90
51853;DHT22;37894;53.172;6.598;2022-07-22T01:04:17;16.20;99.90
51853;DHT22;37894;53.172;6.598;2022-07-22T01:06:42;16.20;99.90
51853;DHT22;37894;53.172;6.598;2022-07-22T01:09:10;16.20;99.90
51853;DHT22;37894;53.172;6.598;2022-07-22T01:11:36;16.20;99.90
51853;DHT22;37894;53.172;6.598;2022-07-22T01:14:03;16.10;99.90
51853;DHT22;37894;53.172;6.598;2022-07-22T01:16:28;16.20;99.90
51853;DHT22;37894;53.172;6.598;2022-07-22T01:18:54;16.10;99.90
51853;DHT22;37894;53.172;6.598;2022-07-22T01:21:21;16.10;99.90
51853;DHT22;37894;53.172;6.598;2022-07-22T01:23:47;16.10;99.90
51853;DHT22;37894;53.172;6.598;2022-07-22T01:26:13;16.10;99.90
51853;DHT22;37894;53.172;6.598;2022-07-22T01:28:40;16.10;99.90
51853;DHT22;37894;53.172;6.598;2022-07-22T01:31:06;16.10;99.90
51853;DHT22;37894;53.172;6.598;2022-07-22T01:33:32;16.10;99.90
51853;DHT22;37894;53.172;6.598;2022-07-22T01:35:58;16.10;99.90
51853;DHT22;37894;53.172;6.598;2022-07-22T01:38:24;16.10;99.90
51853;DHT22;37894;53.172;6.598;2022-07-22T01:40:49;16.10;99.90
51853;DHT22;37894;53.172;6.598;2022-07-22T01:43:15;16.10;99.90
51853;DHT22;37894;53.172;6.598;2022-07-22T01:45:44;16.10;99.90
51853;DHT22;37894;53.172;6.598;2022-07-22T01:48:10;16.10;99.90
51853;DHT22;37894;53.172;6.598;2022-07-22T01:50:36;16.00;99.90
51853;DHT22;37894;53.172;6.598;2022-07-22T01:53:02;16.10;99.90
51853;DHT22;37894;53.172;6.598;2022-07-22T01:55:27;16.10;99.90
51853;DHT22;37894;53.172;6.598;2022-07-22T01:57:53;16.20;99.90
51853;DHT22;37894;53.172;6.598;2022-07-22T02:00:19;16.10;99.90
51853;DHT22;37894;53.172;6.598;2022-07-22T02:02:45;16.10;99.90
51853;DHT22;37894;53.172;6.598;2022-07-22T02:05:12;16.00;99.90
51853;DHT22;37894;53.172;6.598;2022-07-22T02:07:37;16.00;99.90
51853;DHT22;37894;53.172;6.598;2022-07-22T02:10:04;16.10;99.90
51853;DHT22;37894;53.172;6.598;2022-07-22T02:12:30;16.00;99.90
51853;DHT22;37894;53.172;6.598;2022-07-22T02:14:56;16.60;99.90
51853;DHT22;37894;53.172;6.598;2022-07-22T02:17:21;16.00;99.90
51853;DHT22;37894;53.172;6.598;2022-07-22T02:19:47;16.00;99.90
51853;DHT22;37894;53.172;6.598;2022-07-22T02:22:13;16.00;99.90
51853;DHT22;37894;53.172;6.598;2022-07-22T02:24:38;16.00;99.90
51853;DHT22;37894;53.172;6.598;2022-07-22T02:27:04;16.10;99.90
51853;DHT22;37894;53.172;6.598;2022-07-22T02:29:31;16.00;99.90
51853;DHT22;37894;53.172;6.598;2022-07-22T02:31:56;16.60;99.90
51853;DHT22;37894;53.172;6.598;2022-07-22T02:34:22;15.90;99.90
51853;DHT22;37894;53.172;6.598;2022-07-22T02:36:47;15.90;99.90
51853;DHT22;37894;53.172;6.598;2022-07-22T02:39:13;15.90;99.90
51853;DHT22;37894;53.172;6.598;2022-07-22T02:41:39;16.00;99.90
51853;DHT22;37894;53.172;6.598;2022-07-22T02:44:05;15.90;99.90
51853;DHT22;37894;53.172;6.598;2022-07-22T02:46:30;16.30;99.90
51853;DHT22;37894;53.172;6.598;2022-07-22T02:48:56;15.90;99.90
51853;DHT22;37894;53.172;6.598;2022-07-22T02:51:22;16.20;99.90
51853;DHT22;37894;53.172;6.598;2022-07-22T02:53:48;15.90;99.90
51853;DHT22;37894;53.172;6.598;2022-07-22T02:56:14;15.90;99.90
51853;DHT22;37894;53.172;6.598;2022-07-22T02:58:40;16.10;99.90
51853;DHT22;37894;53.172;6.598;2022-07-22T03:01:06;15.90;99.90
51853;DHT22;37894;53.172;6.598;2022-07-22T03:03:32;15.80;99.90
51853;DHT22;37894;53.172;6.598;2022-07-22T03:05:58;15.90;99.90
51853;DHT22;37894;53.172;6.598;2022-07-22T03:08:24;15.90;99.90
51853;DHT22;37894;53.172;6.598;2022-07-22T03:10:50;16.20;99.90
51853;DHT22;37894;53.172;6.598;2022-07-22T03:13:16;15.90;99.90
51853;DHT22;37894;53.172;6.598;2022-07-22T03:15:42;15.80;99.90
51853;DHT22;37894;53.172;6.598;2022-07-22T03:18:08;15.80;99.90
51853;DHT22;37894;53.172;6.598;2022-07-22T03:20:33;15.80;99.90
51853;DHT22;37894;53.172;6.598;2022-07-22T03:22:59;15.80;99.90
51853;DHT22;37894;53.172;6.598;2022-07-22T03:25:25;15.80;99.90
51853;DHT22;37894;53.172;6.598;2022-07-22T03:27:50;15.80;99.90
51853;DHT22;37894;53.172;6.598;2022-07-22T03:30:16;15.80;99.90
51853;DHT22;37894;53.172;6.598;2022-07-22T03:32:41;15.80;99.90
51853;DHT22;37894;53.172;6.598;2022-07-22T03:35:15;16.90;99.90
51853;DHT22;37894;53.172;6.598;2022-07-22T03:37:41;15.80;99.90
51853;DHT22;37894;53.172;6.598;2022-07-22T03:40:08;16.30;99.90
51853;DHT22;37894;53.172;6.598;2022-07-22T03:42:34;15.80;99.90
51853;DHT22;37894;53.172;6.598;2022-07-22T03:44:59;15.90;99.90
51853;DHT22;37894;53.172;6.598;2022-07-22T03:47:25;15.90;99.90
51853;DHT22;37894;53.172;6.598;2022-07-22T03:49:51;16.60;99.90
51853;DHT22;37894;53.172;6.598;2022-07-22T03:52:17;15.90;99.90
51853;DHT22;37894;53.172;6.598;2022-07-22T03:54:43;15.70;99.90
51853;DHT22;37894;53.172;6.598;2022-07-22T03:57:08;15.70;99.90
51853;DHT22;37894;53.172;6.598;2022-07-22T03:59:35;15.80;99.90
51853;DHT22;37894;53.172;6.598;2022-07-22T04:02:01;15.70;99.90
51853;DHT22;37894;53.172;6.598;2022-07-22T04:04:27;15.80;99.90
51853;DHT22;37894;53.172;6.598;2022-07-22T04:06:52;15.70;99.90
51853;DHT22;37894;53.172;6.598;2022-07-22T04:09:19;15.70;99.90
51853;DHT22;37894;53.172;6.598;2022-07-22T04:11:45;16.10;99.90
51853;DHT22;37894;53.172;6.598;2022-07-22T04:14:11;15.80;99.90
51853;DHT22;37894;53.172;6.598;2022-07-22T04:16:37;15.80;99.90
51853;DHT22;37894;53.172;6.598;2022-07-22T04:19:03;15.80;99.90
51853;DHT22;37894;53.172;6.598;2022-07-22T04:21:29;16.10;99.90
51853;DHT22;37894;53.172;6.598;2022-07-22T04:23:55;15.80;99.90
51853;DHT22;37894;53.172;6.598;2022-07-22T04:26:21;15.80;99.90
51853;DHT22;37894;53.172;6.598;2022-07-22T04:28:46;15.90;99.90
51853;DHT22;37894;53.172;6.598;2022-07-22T04:31:12;15.80;99.90
51853;DHT22;37894;53.172;6.598;2022-07-22T04:33:38;15.90;99.90
51853;DHT22;37894;53.172;6.598;2022-07-22T04:36:04;15.80;99.90
51853;DHT22;37894;53.172;6.598;2022-07-22T04:38:30;15.80;99.90
51853;DHT22;37894;53.172;6.598;2022-07-22T04:40:55;15.80;99.90
51853;DHT22;37894;53.172;6.598;2022-07-22T04:43:21;15.80;99.90
51853;DHT22;37894;53.172;6.598;2022-07-22T04:45:47;16.00;99.90
51853;DHT22;37894;53.172;6.598;2022-07-22T04:48:13;15.80;99.90
51853;DHT22;37894;53.172;6.598;2022-07-22T04:50:38;15.90;99.90
51853;DHT22;37894;53.172;6.598;2022-07-22T04:53:04;15.90;99.90
51853;DHT22;37894;53.172;6.598;2022-07-22T04:55:30;15.90;99.90
51853;DHT22;37894;53.172;6.598;2022-07-22T04:57:56;16.10;99.90
51853;DHT22;37894;53.172;6.598;2022-07-22T05:00:22;15.90;99.90
51853;DHT22;37894;53.172;6.598;2022-07-22T05:02:48;15.90;99.90
51853;DHT22;37894;53.172;6.598;2022-07-22T05:05:13;15.90;99.90
51853;DHT22;37894;53.172;6.598;2022-07-22T05:07:39;15.90;99.90
51853;DHT22;37894;53.172;6.598;2022-07-22T05:10:05;15.90;99.90
51853;DHT22;37894;53.172;6.598;2022-07-22T05:12:31;15.90;99.90
51853;DHT22;37894;53.172;6.598;2022-07-22T05:14:56;16.00;99.90
51853;DHT22;37894;53.172;6.598;2022-07-22T05:17:22;16.00;99.90
51853;DHT22;37894;53.172;6.598;2022-07-22T05:19:48;16.10;99.90
51853;DHT22;37894;53.172;6.598;2022-07-22T05:22:14;16.00;99.90
51853;DHT22;37894;53.172;6.598;2022-07-22T05:24:40;16.00;99.90
51853;DHT22;37894;53.172;6.598;2022-07-22T05:27:05;16.10;99.90
51853;DHT22;37894;53.172;6.598;2022-07-22T05:29:31;16.10;99.90
51853;DHT22;37894;53.172;6.598;2022-07-22T05:31:57;16.10;99.90
51853;DHT22;37894;53.172;6.598;2022-07-22T05:34:22;16.10;99.90
51853;DHT22;37894;53.172;6.598;2022-07-22T05:36:48;16.20;99.90
51853;DHT22;37894;53.172;6.598;2022-07-22T05:39:14;16.20;99.90
51853;DHT22;37894;53.172;6.598;2022-07-22T05:41:40;16.30;99.90
51853;DHT22;37894;53.172;6.598;2022-07-22T05:44:05;16.20;99.90
51853;DHT22;37894;53.172;6.598;2022-07-22T05:46:31;16.30;99.90
51853;DHT22;37894;53.172;6.598;2022-07-22T05:48:57;16.30;99.90
51853;DHT22;37894;53.172;6.598;2022-07-22T05:51:22;16.40;99.90
51853;DHT22;37894;53.172;6.598;2022-07-22T05:53:48;16.40;99.90
51853;DHT22;37894;53.172;6.598;2022-07-22T05:56:14;16.40;99.90
51853;DHT22;37894;53.172;6.598;2022-07-22T05:58:41;16.40;99.90
51853;DHT22;37894;53.172;6.598;2022-07-22T06:01:08;17.20;99.90
51853;DHT22;37894;53.172;6.598;2022-07-22T06:03:34;16.40;99.90
51853;DHT22;37894;53.172;6.598;2022-07-22T06:06:00;16.50;99.90
51853;DHT22;37894;53.172;6.598;2022-07-22T06:08:27;16.60;99.90
51853;DHT22;37894;53.172;6.598;2022-07-22T06:10:53;16.60;99.90
51853;DHT22;37894;53.172;6.598;2022-07-22T06:13:19;16.80;99.90
51853;DHT22;37894;53.172;6.598;2022-07-22T06:15:45;16.60;99.90
51853;DHT22;37894;53.172;6.598;2022-07-22T06:18:10;16.60;99.90
51853;DHT22;37894;53.172;6.598;2022-07-22T06:20:36;16.60;99.90
51853;DHT22;37894;53.172;6.598;2022-07-22T06:23:02;16.60;99.90
51853;DHT22;37894;53.172;6.598;2022-07-22T06:25:28;16.70;99.90
51853;DHT22;37894;53.172;6.598;2022-07-22T06:27:53;16.70;99.90
51853;DHT22;37894;53.172;6.598;2022-07-22T06:30:19;16.70;99.90
51853;DHT22;37894;53.172;6.598;2022-07-22T06:32:46;16.70;99.90
51853;DHT22;37894;53.172;6.598;2022-07-22T06:35:12;16.70;99.90
51853;DHT22;37894;53.172;6.598;2022-07-22T06:37:37;16.80;99.90
51853;DHT22;37894;53.172;6.598;2022-07-22T06:40:04;16.80;99.90
51853;DHT22;37894;53.172;6.598;2022-07-22T06:42:30;16.90;99.90
51853;DHT22;37894;53.172;6.598;2022-07-22T06:44:55;17.00;99.90
51853;DHT22;37894;53.172;6.598;2022-07-22T06:47:21;17.00;99.90
51853;DHT22;37894;53.172;6.598;2022-07-22T06:49:46;17.00;99.90
51853;DHT22;37894;53.172;6.598;2022-07-22T06:52:12;17.00;99.90
51853;DHT22;37894;53.172;6.598;2022-07-22T06:54:38;17.10;99.90
51853;DHT22;37894;53.172;6.598;2022-07-22T06:57:03;17.10;99.90
51853;DHT22;37894;53.172;6.598;2022-07-22T06:59:29;17.20;99.90
51853;DHT22;37894;53.172;6.598;2022-07-22T07:01:55;17.20;99.90
51853;DHT22;37894;53.172;6.598;2022-07-22T07:04:20;17.20;99.90
51853;DHT22;37894;53.172;6.598;2022-07-22T07:06:46;17.30;99.90
51853;DHT22;37894;53.172;6.598;2022-07-22T07:09:12;17.30;99.90
51853;DHT22;37894;53.172;6.598;2022-07-22T07:11:37;17.40;99.90
51853;DHT22;37894;53.172;6.598;2022-07-22T07:14:03;17.40;99.90
51853;DHT22;37894;53.172;6.598;2022-07-22T07:16:29;17.40;99.90
51853;DHT22;37894;53.172;6.598;2022-07-22T07:18:55;17.50;99.90
51853;DHT22;37894;53.172;6.598;2022-07-22T07:21:21;17.60;99.90
51853;DHT22;37894;53.172;6.598;2022-07-22T07:23:46;17.60;99.90
51853;DHT22;37894;53.172;6.598;2022-07-22T07:26:12;17.70;99.90
51853;DHT22;37894;53.172;6.598;2022-07-22T07:28:39;17.60;99.90
51853;DHT22;37894;53.172;6.598;2022-07-22T07:31:04;17.70;99.90
51853;DHT22;37894;53.172;6.598;2022-07-22T07:33:30;17.70;99.90
51853;DHT22;37894;53.172;6.598;2022-07-22T07:35:56;17.60;99.90
51853;DHT22;37894;53.172;6.598;2022-07-22T07:38:22;17.70;99.90
51853;DHT22;37894;53.172;6.598;2022-07-22T07:40:47;18.20;99.90
51853;DHT22;37894;53.172;6.598;2022-07-22T07:43:13;17.70;99.90
51853;DHT22;37894;53.172;6.598;2022-07-22T07:45:39;17.80;99.90
51853;DHT22;37894;53.172;6.598;2022-07-22T07:48:05;17.80;99.90
51853;DHT22;37894;53.172;6.598;2022-07-22T07:50:30;17.90;99.90
51853;DHT22;37894;53.172;6.598;2022-07-22T07:52:56;18.00;99.90
51853;DHT22;37894;53.172;6.598;2022-07-22T07:55:22;18.00;99.90
51853;DHT22;37894;53.172;6.598;2022-07-22T07:57:49;18.00;99.90
51853;DHT22;37894;53.172;6.598;2022-07-22T08:00:19;18.00;99.90
51853;DHT22;37894;53.172;6.598;2022-07-22T08:02:45;18.00;99.90
51853;DHT22;37894;53.172;6.598;2022-07-22T08:05:11;18.00;99.90
51853;DHT22;37894;53.172;6.598;2022-07-22T08:07:37;18.00;99.90
51853;DHT22;37894;53.172;6.598;2022-07-22T08:10:04;18.10;99.90
51853;DHT22;37894;53.172;6.598;2022-07-22T08:12:30;18.00;99.90
51853;DHT22;37894;53.172;6.598;2022-07-22T08:14:56;18.00;99.90
51853;DHT22;37894;53.172;6.598;2022-07-22T08:17:22;18.10;99.90
51853;DHT22;37894;53.172;6.598;2022-07-22T08:19:48;18.10;99.90
51853;DHT22;37894;53.172;6.598;2022-07-22T08:22:13;18.00;99.90
51853;DHT22;37894;53.172;6.598;2022-07-22T08:24:39;18.00;99.90
51853;DHT22;37894;53.172;6.598;2022-07-22T08:27:04;18.10;99.90
51853;DHT22;37894;53.172;6.598;2022-07-22T08:29:30;18.10;99.90
51853;DHT22;37894;53.172;6.598;2022-07-22T08:31:56;18.10;99.90
51853;DHT22;37894;53.172;6.598;2022-07-22T08:34:21;18.10;99.90
51853;DHT22;37894;53.172;6.598;2022-07-22T08:36:47;18.10;99.90
51853;DHT22;37894;53.172;6.598;2022-07-22T08:39:13;18.10;99.90
51853;DHT22;37894;53.172;6.598;2022-07-22T08:41:39;18.10;99.90
51853;DHT22;37894;53.172;6.598;2022-07-22T08:44:07;18.00;99.90
51853;DHT22;37894;53.172;6.598;2022-07-22T08:46:34;18.00;99.90
51853;DHT22;37894;53.172;6.598;2022-07-22T08:49:00;18.00;99.90
51853;DHT22;37894;53.172;6.598;2022-07-22T08:51:27;18.00;99.90
51853;DHT22;37894;53.172;6.598;2022-07-22T08:53:56;18.10;99.90
51853;DHT22;37894;53.172;6.598;2022-07-22T08:56:22;18.10;99.90
51853;DHT22;37894;53.172;6.598;2022-07-22T08:58:48;18.20;99.90
51853;DHT22;37894;53.172;6.598;2022-07-22T09:01:15;18.30;99.90
51853;DHT22;37894;53.172;6.598;2022-07-22T09:03:46;18.30;99.90
51853;DHT22;37894;53.172;6.598;2022-07-22T09:06:12;18.40;99.90
51853;DHT22;37894;53.172;6.598;2022-07-22T09:09:02;18.30;99.90
51853;DHT22;37894;53.172;6.598;2022-07-22T09:11:29;18.30;99.90
51853;DHT22;37894;53.172;6.598;2022-07-22T09:13:57;18.20;99.90
51853;DHT22;37894;53.172;6.598;2022-07-22T09:16:46;18.20;99.90
51853;DHT22;37894;53.172;6.598;2022-07-22T09:19:13;18.20;99.90
51853;DHT22;37894;53.172;6.598;2022-07-22T09:21:41;18.20;99.90
51853;DHT22;37894;53.172;6.598;2022-07-22T09:24:08;18.30;99.90
51853;DHT22;37894;53.172;6.598;2022-07-22T09:26:39;18.30;99.90
51853;DHT22;37894;53.172;6.598;2022-07-22T09:29:06;18.40;99.90
51853;DHT22;37894;53.172;6.598;2022-07-22T09:31:36;18.50;99.90
51853;DHT22;37894;53.172;6.598;2022-07-22T09:34:03;18.60;99.90
51853;DHT22;37894;53.172;6.598;2022-07-22T09:36:30;18.70;99.90
51853;DHT22;37894;53.172;6.598;2022-07-22T09:38:56;18.70;99.90
51853;DHT22;37894;53.172;6.598;2022-07-22T09:41:22;18.80;99.90
51853;DHT22;37894;53.172;6.598;2022-07-22T09:43:49;18.90;99.90
51853;DHT22;37894;53.172;6.598;2022-07-22T09:46:15;19.00;99.90
51853;DHT22;37894;53.172;6.598;2022-07-22T09:48:41;19.00;99.90
51853;DHT22;37894;53.172;6.598;2022-07-22T09:51:08;19.00;99.90
51853;DHT22;37894;53.172;6.598;2022-07-22T09:53:35;19.20;99.90
51853;DHT22;37894;53.172;6.598;2022-07-22T09:56:03;19.20;99.90
51853;DHT22;37894;53.172;6.598;2022-07-22T09:58:29;19.30;99.90
51853;DHT22;37894;53.172;6.598;2022-07-22T10:01:00;19.40;99.90
51853;DHT22;37894;53.172;6.598;2022-07-22T10:03:30;19.40;99.90
51853;DHT22;37894;53.172;6.598;2022-07-22T10:05:57;19.40;99.90
51853;DHT22;37894;53.172;6.598;2022-07-22T10:08:25;19.40;99.90
51853;DHT22;37894;53.172;6.598;2022-07-22T10:10:52;19.50;99.90
51853;DHT22;37894;53.172;6.598;2022-07-22T10:13:18;19.50;99.90
51853;DHT22;37894;53.172;6.598;2022-07-22T10:15:45;19.60;99.90
51853;DHT22;37894;53.172;6.598;2022-07-22T10:18:17;19.70;99.90
51853;DHT22;37894;53.172;6.598;2022-07-22T10:20:43;19.90;99.90
51853;DHT22;37894;53.172;6.598;2022-07-22T10:23:12;19.90;99.90
51853;DHT22;37894;53.172;6.598;2022-07-22T10:25:56;20.00;99.90
51853;DHT22;37894;53.172;6.598;2022-07-22T10:28:32;20.10;99.90
51853;DHT22;37894;53.172;6.598;2022-07-22T10:31:21;20.10;99.90
51853;DHT22;37894;53.172;6.598;2022-07-22T10:33:53;20.10;99.90
51853;DHT22;37894;53.172;6.598;2022-07-22T10:36:34;20.20;99.90
51853;DHT22;37894;53.172;6.598;2022-07-22T10:41:38;20.50;99.90
51853;DHT22;37894;53.172;6.598;2022-07-22T10:44:05;20.70;99.90
51853;DHT22;37894;53.172;6.598;2022-07-22T10:46:51;20.90;99.90
51853;DHT22;37894;53.172;6.598;2022-07-22T10:49:19;21.10;99.90
51853;DHT22;37894;53.172;6.598;2022-07-22T10:54:33;21.30;99.90
51853;DHT22;37894;53.172;6.598;2022-07-22T10:57:02;21.40;99.90
51853;DHT22;37894;53.172;6.598;2022-07-22T10:59:28;21.50;99.90
51853;DHT22;37894;53.172;6.598;2022-07-22T11:01:53;21.40;99.90
51853;DHT22;37894;53.172;6.598;2022-07-22T11:04:25;21.20;99.90
51853;DHT22;37894;53.172;6.598;2022-07-22T11:06:53;21.20;99.90
51853;DHT22;37894;53.172;6.598;2022-07-22T11:09:21;21.30;99.90
51853;DHT22;37894;53.172;6.598;2022-07-22T11:11:50;21.20;99.90
51853;DHT22;37894;53.172;6.598;2022-07-22T11:17:08;21.10;99.90
51853;DHT22;37894;53.172;6.598;2022-07-22T11:19:36;21.00;99.90
51853;DHT22;37894;53.172;6.598;2022-07-22T11:22:11;21.00;99.90
51853;DHT22;37894;53.172;6.598;2022-07-22T11:24:39;20.90;99.90
51853;DHT22;37894;53.172;6.598;2022-07-22T11:27:09;20.80;99.90
51853;DHT22;37894;53.172;6.598;2022-07-22T11:29:39;20.60;99.90
51853;DHT22;37894;53.172;6.598;2022-07-22T11:32:09;20.60;99.90
51853;DHT22;37894;53.172;6.598;2022-07-22T11:34:37;20.50;99.90
51853;DHT22;37894;53.172;6.598;2022-07-22T11:37:03;20.40;99.90
51853;DHT22;37894;53.172;6.598;2022-07-22T11:39:31;20.30;99.90
51853;DHT22;37894;53.172;6.598;2022-07-22T11:41:58;20.30;99.90
51853;DHT22;37894;53.172;6.598;2022-07-22T11:44:27;20.30;99.90
51853;DHT22;37894;53.172;6.598;2022-07-22T11:46:55;20.30;99.90
51853;DHT22;37894;53.172;6.598;2022-07-22T11:49:32;20.30;99.90
51853;DHT22;37894;53.172;6.598;2022-07-22T11:52:05;20.30;99.90
51853;DHT22;37894;53.172;6.598;2022-07-22T11:54:34;20.20;99.90
51853;DHT22;37894;53.172;6.598;2022-07-22T11:57:02;20.30;99.90
51853;DHT22;37894;53.172;6.598;2022-07-22T11:59:28;20.30;99.90
51853;DHT22;37894;53.172;6.598;2022-07-22T12:01:54;20.40;99.90
51853;DHT22;37894;53.172;6.598;2022-07-22T12:04:22;20.40;99.90
51853;DHT22;37894;53.172;6.598;2022-07-22T12:06:48;20.40;99.90
51853;DHT22;37894;53.172;6.598;2022-07-22T12:09:17;20.40;99.90
51853;DHT22;37894;53.172;6.598;2022-07-22T12:11:50;20.40;99.90
51853;DHT22;37894;53.172;6.598;2022-07-22T12:14:22;20.50;99.90
51853;DHT22;37894;53.172;6.598;2022-07-22T12:17:00;20.50;99.90
51853;DHT22;37894;53.172;6.598;2022-07-22T12:19:27;20.70;99.90
51853;DHT22;37894;53.172;6.598;2022-07-22T12:27:12;21.00;99.90
51853;DHT22;37894;53.172;6.598;2022-07-22T12:32:10;20.90;99.90
51853;DHT22;37894;53.172;6.598;2022-07-22T12:34:47;21.10;99.90
51853;DHT22;37894;53.172;6.598;2022-07-22T12:37:43;21.10;99.90
51853;DHT22;37894;53.172;6.598;2022-07-22T12:42:44;21.20;99.90
51853;DHT22;37894;53.172;6.598;2022-07-22T12:45:15;21.30;99.90
51853;DHT22;37894;53.172;6.598;2022-07-22T12:50:29;21.00;99.90
51853;DHT22;37894;53.172;6.598;2022-07-22T12:53:03;21.10;99.90
51853;DHT22;37894;53.172;6.598;2022-07-22T12:55:34;21.00;99.90
51853;DHT22;37894;53.172;6.598;2022-07-22T12:58:01;20.90;99.90
51853;DHT22;37894;53.172;6.598;2022-07-22T13:00:30;20.90;99.90
51853;DHT22;37894;53.172;6.598;2022-07-22T13:02:56;21.00;99.90
51853;DHT22;37894;53.172;6.598;2022-07-22T13:05:23;21.00;99.90
51853;DHT22;37894;53.172;6.598;2022-07-22T13:07:49;21.00;99.90
51853;DHT22;37894;53.172;6.598;2022-07-22T13:10:15;21.10;99.90
51853;DHT22;37894;53.172;6.598;2022-07-22T13:12:42;21.10;99.90
51853;DHT22;37894;53.172;6.598;2022-07-22T13:15:08;21.20;99.90
51853;DHT22;37894;53.172;6.598;2022-07-22T13:17:35;21.20;99.90
51853;DHT22;37894;53.172;6.598;2022-07-22T13:20:01;21.20;99.90
51853;DHT22;37894;53.172;6.598;2022-07-22T13:22:27;21.30;99.90
51853;DHT22;37894;53.172;6.598;2022-07-22T13:24:53;21.50;99.90
51853;DHT22;37894;53.172;6.598;2022-07-22T13:27:18;21.60;99.90
51853;DHT22;37894;53.172;6.598;2022-07-22T13:29:44;21.70;99.90
51853;DHT22;37894;53.172;6.598;2022-07-22T13:32:10;21.70;99.90
51853;DHT22;37894;53.172;6.598;2022-07-22T13:34:35;21.70;99.90
51853;DHT22;37894;53.172;6.598;2022-07-22T13:37:01;21.80;99.90
51853;DHT22;37894;53.172;6.598;2022-07-22T13:39:27;22.00;99.90
51853;DHT22;37894;53.172;6.598;2022-07-22T13:41:53;22.00;99.90
51853;DHT22;37894;53.172;6.598;2022-07-22T13:44:18;22.00;99.90
51853;DHT22;37894;53.172;6.598;2022-07-22T13:46:44;21.90;99.90
51853;DHT22;37894;53.172;6.598;2022-07-22T13:49:11;22.00;99.90
51853;DHT22;37894;53.172;6.598;2022-07-22T13:51:36;22.00;99.90
51853;DHT22;37894;53.172;6.598;2022-07-22T13:54:02;22.10;99.90
51853;DHT22;37894;53.172;6.598;2022-07-22T13:56:28;22.10;99.60
51853;DHT22;37894;53.172;6.598;2022-07-22T13:58:54;22.10;99.90
51853;DHT22;37894;53.172;6.598;2022-07-22T14:01:20;22.20;99.90
51853;DHT22;37894;53.172;6.598;2022-07-22T14:03:46;22.10;99.90
51853;DHT22;37894;53.172;6.598;2022-07-22T14:06:12;22.10;99.90
51853;DHT22;37894;53.172;6.598;2022-07-22T14:08:37;22.00;99.90
51853;DHT22;37894;53.172;6.598;2022-07-22T14:11:04;22.00;99.90
51853;DHT22;37894;53.172;6.598;2022-07-22T14:13:29;22.00;99.90
51853;DHT22;37894;53.172;6.598;2022-07-22T14:15:55;21.90;99.90
51853;DHT22;37894;53.172;6.598;2022-07-22T14:18:21;21.80;99.90
51853;DHT22;37894;53.172;6.598;2022-07-22T14:20:47;21.80;99.90
51853;DHT22;37894;53.172;6.598;2022-07-22T14:23:13;21.70;99.90
51853;DHT22;37894;53.172;6.598;2022-07-22T14:25:40;21.60;99.90
51853;DHT22;37894;53.172;6.598;2022-07-22T14:28:07;21.50;99.90
51853;DHT22;37894;53.172;6.598;2022-07-22T14:30:33;21.40;99.90
51853;DHT22;37894;53.172;6.598;2022-07-22T14:32:59;21.30;99.90
51853;DHT22;37894;53.172;6.598;2022-07-22T14:35:25;21.20;99.90
51853;DHT22;37894;53.172;6.598;2022-07-22T14:37:51;21.10;99.90
51853;DHT22;37894;53.172;6.598;2022-07-22T14:40:17;21.10;99.90
51853;DHT22;37894;53.172;6.598;2022-07-22T14:42:43;21.10;99.90
51853;DHT22;37894;53.172;6.598;2022-07-22T14:45:09;21.10;99.90
51853;DHT22;37894;53.172;6.598;2022-07-22T14:47:38;21.10;99.90
51853;DHT22;37894;53.172;6.598;2022-07-22T14:50:05;21.00;99.90
51853;DHT22;37894;53.172;6.598;2022-07-22T14:52:31;21.10;99.90
51853;DHT22;37894;53.172;6.598;2022-07-22T14:54:57;21.10;99.90
51853;DHT22;37894;53.172;6.598;2022-07-22T14:57:23;21.10;99.90
51853;DHT22;37894;53.172;6.598;2022-07-22T14:59:48;21.10;99.90
51853;DHT22;37894;53.172;6.598;2022-07-22T15:02:14;21.20;99.90
51853;DHT22;37894;53.172;6.598;2022-07-22T15:04:40;21.00;99.90
51853;DHT22;37894;53.172;6.598;2022-07-22T15:07:06;21.00;99.90
51853;DHT22;37894;53.172;6.598;2022-07-22T15:09:31;21.00;99.90
51853;DHT22;37894;53.172;6.598;2022-07-22T15:11:57;20.90;99.90
51853;DHT22;37894;53.172;6.598;2022-07-22T15:14:23;20.90;99.90
51853;DHT22;37894;53.172;6.598;2022-07-22T15:16:48;20.90;99.90
51853;DHT22;37894;53.172;6.598;2022-07-22T15:19:14;20.90;99.90
51853;DHT22;37894;53.172;6.598;2022-07-22T15:21:40;21.00;99.90
51853;DHT22;37894;53.172;6.598;2022-07-22T15:24:06;21.00;99.90
51853;DHT22;37894;53.172;6.598;2022-07-22T15:26:31;21.00;99.90
51853;DHT22;37894;53.172;6.598;2022-07-22T15:28:57;21.00;99.90
51853;DHT22;37894;53.172;6.598;2022-07-22T15:31:24;21.00;99.90
51853;DHT22;37894;53.172;6.598;2022-07-22T15:33:50;20.90;99.90
51853;DHT22;37894;53.172;6.598;2022-07-22T15:36:15;20.80;99.90
51853;DHT22;37894;53.172;6.598;2022-07-22T15:38:41;20.70;99.90
51853;DHT22;37894;53.172;6.598;2022-07-22T15:41:08;20.60;99.90
51853;DHT22;37894;53.172;6.598;2022-07-22T15:43:34;20.50;99.90
51853;DHT22;37894;53.172;6.598;2022-07-22T15:46:00;20.50;99.90
51853;DHT22;37894;53.172;6.598;2022-07-22T15:48:27;20.40;99.90